sensor_id;sensor_type;location;lat;lon;timestamp;pressure;altitude;pressure_sealevel;temperature;humidity
59951;BME280;45812;53.540;9.774;2023-03-01T00:00:45;103167.53;;;-0.52;87.80
59951;BME280;45812;53.540;9.774;2023-03-01T00:03:11;103168.66;;;-0.64;88.90
59951;BME280;45812;53.540;9.774;2023-03-01T00:05:43;103168.72;;;0.09;86.51
59951;BME280;45812;53.540;9.774;2023-03-01T00:08:08;103174.53;;;0.22;85.96
59951;BME280;45812;53.540;9.774;2023-03-01T00:10:34;103170.03;;;0.27;85.97
59951;BME280;45812;53.540;9.774;2023-03-01T00:12:59;103167.16;;;0.36;85.20
59951;BME280;45812;53.540;9.774;2023-03-01T00:15:24;103171.03;;;0.57;82.57
59951;BME280;45812;53.540;9.774;2023-03-01T00:17:49;103166.97;;;0.78;80.96
59951;BME280;45812;53.540;9.774;2023-03-01T00:20:15;103173.69;;;0.86;80.48
59951;BME280;45812;53.540;9.774;2023-03-01T00:22:40;103173.47;;;0.96;80.17
59951;BME280;45812;53.540;9.774;2023-03-01T00:25:05;103154.94;;;1.02;79.78
59951;BME280;45812;53.540;9.774;2023-03-01T00:27:31;103163.66;;;1.02;79.81
59951;BME280;45812;53.540;9.774;2023-03-01T00:29:56;103161.94;;;1.01;80.19
59951;BME280;45812;53.540;9.774;2023-03-01T00:32:21;103160.41;;;0.93;80.93
59951;BME280;45812;53.540;9.774;2023-03-01T00:34:46;103164.00;;;0.90;79.86
59951;BME280;45812;53.540;9.774;2023-03-01T00:37:22;103156.22;;;0.87;79.99
59951;BME280;45812;53.540;9.774;2023-03-01T00:39:48;103163.34;;;0.82;80.46
59951;BME280;45812;53.540;9.774;2023-03-01T00:42:13;103161.88;;;0.72;81.73
59951;BME280;45812;53.540;9.774;2023-03-01T00:44:39;103162.03;;;0.66;81.77
59951;BME280;45812;53.540;9.774;2023-03-01T00:47:04;103162.03;;;0.66;81.01
59951;BME280;45812;53.540;9.774;2023-03-01T00:49:29;103160.16;;;0.71;81.00
59951;BME280;45812;53.540;9.774;2023-03-01T00:51:54;103165.97;;;0.82;80.27
59951;BME280;45812;53.540;9.774;2023-03-01T00:54:20;103163.03;;;0.93;79.31
59951;BME280;45812;53.540;9.774;2023-03-01T00:56:45;103156.00;;;0.95;78.23
59951;BME280;45812;53.540;9.774;2023-03-01T00:59:10;103153.34;;;0.96;78.48
59951;BME280;45812;53.540;9.774;2023-03-01T01:01:36;103157.69;;;0.97;78.40
59951;BME280;45812;53.540;9.774;2023-03-01T01:04:05;103154.97;;;1.00;77.63
59951;BME280;45812;53.540;9.774;2023-03-01T01:06:33;103157.88;;;0.89;78.18
59951;BME280;45812;53.540;9.774;2023-03-01T01:08:59;103159.00;;;0.81;78.30
59951;BME280;45812;53.540;9.774;2023-03-01T01:11:26;103151.47;;;0.69;79.20
59951;BME280;45812;53.540;9.774;2023-03-01T01:13:52;103147.41;;;0.58;79.68
59951;BME280;45812;53.540;9.774;2023-03-01T01:16:19;103147.63;;;0.49;80.09
59951;BME280;45812;53.540;9.774;2023-03-01T01:18:45;103140.66;;;0.48;80.79
59951;BME280;45812;53.540;9.774;2023-03-01T01:21:13;103140.84;;;0.42;80.79
59951;BME280;45812;53.540;9.774;2023-03-01T01:23:40;103138.44;;;0.33;81.13
59951;BME280;45812;53.540;9.774;2023-03-01T01:26:08;103136.81;;;0.29;81.88
59951;BME280;45812;53.540;9.774;2023-03-01T01:28:33;103129.84;;;0.28;82.36
59951;BME280;45812;53.540;9.774;2023-03-01T01:30:59;103127.31;;;0.25;82.59
59951;BME280;45812;53.540;9.774;2023-03-01T01:33:25;103133.44;;;0.24;83.05
59951;BME280;45812;53.540;9.774;2023-03-01T01:35:50;103133.44;;;0.24;81.47
59951;BME280;45812;53.540;9.774;2023-03-01T01:38:15;103133.31;;;0.28;81.28
59951;BME280;45812;53.540;9.774;2023-03-01T01:40:45;103130.56;;;0.33;82.00
59951;BME280;45812;53.540;9.774;2023-03-01T01:43:24;103123.56;;;0.34;81.91
59951;BME280;45812;53.540;9.774;2023-03-01T01:45:50;103125.41;;;0.30;82.75
59951;BME280;45812;53.540;9.774;2023-03-01T01:48:20;103115.81;;;0.30;82.39
59951;BME280;45812;53.540;9.774;2023-03-01T01:50:56;103123.63;;;0.32;83.08
59951;BME280;45812;53.540;9.774;2023-03-01T01:53:24;103115.13;;;0.24;83.90
59951;BME280;45812;53.540;9.774;2023-03-01T01:55:53;103110.00;;;0.18;84.54
59951;BME280;45812;53.540;9.774;2023-03-01T01:58:22;103105.88;;;0.09;85.06
59951;BME280;45812;53.540;9.774;2023-03-01T02:00:49;103110.34;;;0.06;85.52
59951;BME280;45812;53.540;9.774;2023-03-01T02:03:19;103107.63;;;0.09;83.15
59951;BME280;45812;53.540;9.774;2023-03-01T02:06:06;103103.22;;;0.11;80.96
59951;BME280;45812;53.540;9.774;2023-03-01T02:08:38;103100.72;;;0.06;79.83
59951;BME280;45812;53.540;9.774;2023-03-01T02:11:04;103103.31;;;0.08;79.74
59951;BME280;45812;53.540;9.774;2023-03-01T02:13:31;103095.50;;;0.06;79.60
59951;BME280;45812;53.540;9.774;2023-03-01T02:15:57;103092.91;;;0.05;79.48
59951;BME280;45812;53.540;9.774;2023-03-01T02:18:23;103093.78;;;0.05;79.37
59951;BME280;45812;53.540;9.774;2023-03-01T02:21:11;103089.44;;;0.04;79.96
59951;BME280;45812;53.540;9.774;2023-03-01T02:23:39;103093.00;;;0.02;80.14
59951;BME280;45812;53.540;9.774;2023-03-01T02:26:09;103100.00;;;-0.01;81.41
59951;BME280;45812;53.540;9.774;2023-03-01T02:28:40;103096.56;;;-0.03;82.53
59951;BME280;45812;53.540;9.774;2023-03-01T02:31:09;103093.91;;;0.01;82.79
59951;BME280;45812;53.540;9.774;2023-03-01T02:33:53;103091.50;;;-0.09;83.42
59951;BME280;45812;53.540;9.774;2023-03-01T02:36:22;103090.75;;;-0.14;84.39
59951;BME280;45812;53.540;9.774;2023-03-01T02:38:50;103100.50;;;-0.20;85.34
59951;BME280;45812;53.540;9.774;2023-03-01T02:41:17;103101.47;;;-0.24;86.02
59951;BME280;45812;53.540;9.774;2023-03-01T02:43:44;103100.66;;;-0.26;87.12
59951;BME280;45812;53.540;9.774;2023-03-01T02:46:28;103098.81;;;-0.23;86.92
59951;BME280;45812;53.540;9.774;2023-03-01T02:48:55;103097.09;;;-0.24;87.27
59951;BME280;45812;53.540;9.774;2023-03-01T02:54:08;103095.25;;;-0.20;86.26
59951;BME280;45812;53.540;9.774;2023-03-01T02:56:36;103092.75;;;-0.25;85.65
59951;BME280;45812;53.540;9.774;2023-03-01T02:59:01;103092.03;;;-0.30;85.40
59951;BME280;45812;53.540;9.774;2023-03-01T03:01:27;103088.59;;;-0.32;85.19
59951;BME280;45812;53.540;9.774;2023-03-01T03:04:05;103088.75;;;-0.40;85.36
59951;BME280;45812;53.540;9.774;2023-03-01T03:06:31;103093.28;;;-0.46;85.91
59951;BME280;45812;53.540;9.774;2023-03-01T03:08:56;103088.91;;;-0.46;84.85
59951;BME280;45812;53.540;9.774;2023-03-01T03:11:22;103084.31;;;-0.38;83.84
59951;BME280;45812;53.540;9.774;2023-03-01T03:13:47;103086.81;;;-0.32;83.42
59951;BME280;45812;53.540;9.774;2023-03-01T03:16:13;103085.75;;;-0.24;83.20
59951;BME280;45812;53.540;9.774;2023-03-01T03:18:38;103073.47;;;-0.21;83.27
59951;BME280;45812;53.540;9.774;2023-03-01T03:21:08;103085.66;;;-0.96;87.89
59951;BME280;45812;53.540;9.774;2023-03-01T03:23:35;103080.84;;;-1.15;90.39
59951;BME280;45812;53.540;9.774;2023-03-01T03:26:01;103080.81;;;-1.14;92.41
59951;BME280;45812;53.540;9.774;2023-03-01T03:28:28;103075.28;;;-1.00;90.40
59951;BME280;45812;53.540;9.774;2023-03-01T03:30:53;103076.69;;;-0.84;88.91
59951;BME280;45812;53.540;9.774;2023-03-01T03:33:19;103072.88;;;-0.69;87.33
59951;BME280;45812;53.540;9.774;2023-03-01T03:35:47;103070.03;;;-0.60;87.01
59951;BME280;45812;53.540;9.774;2023-03-01T03:38:15;103078.63;;;-0.53;86.88
59951;BME280;45812;53.540;9.774;2023-03-01T03:41:18;103071.41;;;-0.44;87.35
59951;BME280;45812;53.540;9.774;2023-03-01T03:43:37;103068.59;;;-0.35;88.20
59951;BME280;45812;53.540;9.774;2023-03-01T03:46:03;103063.19;;;-0.28;87.61
59951;BME280;45812;53.540;9.774;2023-03-01T03:48:32;103056.91;;;-0.21;86.62
59951;BME280;45812;53.540;9.774;2023-03-01T03:50:57;103062.81;;;-0.13;85.78
59951;BME280;45812;53.540;9.774;2023-03-01T03:53:25;103062.66;;;-0.07;86.00
59951;BME280;45812;53.540;9.774;2023-03-01T03:55:52;103061.56;;;0.02;86.22
59951;BME280;45812;53.540;9.774;2023-03-01T03:58:18;103062.34;;;0.05;85.55
59951;BME280;45812;53.540;9.774;2023-03-01T04:00:46;103059.59;;;0.10;84.73
59951;BME280;45812;53.540;9.774;2023-03-01T04:03:13;103053.38;;;0.14;84.48
59951;BME280;45812;53.540;9.774;2023-03-01T04:05:39;103050.63;;;0.18;84.11
59951;BME280;45812;53.540;9.774;2023-03-01T04:08:06;103043.50;;;0.25;83.71
59951;BME280;45812;53.540;9.774;2023-03-01T04:10:38;103049.41;;;0.32;82.39
59951;BME280;45812;53.540;9.774;2023-03-01T04:13:09;103044.84;;;0.40;81.98
59951;BME280;45812;53.540;9.774;2023-03-01T04:15:35;103043.09;;;0.40;81.47
59951;BME280;45812;53.540;9.774;2023-03-01T04:18:01;103043.91;;;0.42;81.03
59951;BME280;45812;53.540;9.774;2023-03-01T04:20:29;103042.91;;;0.46;80.93
59951;BME280;45812;53.540;9.774;2023-03-01T04:23:01;103037.47;;;0.52;79.97
59951;BME280;45812;53.540;9.774;2023-03-01T04:25:54;103041.75;;;0.56;78.47
59951;BME280;45812;53.540;9.774;2023-03-01T04:28:41;103044.19;;;0.63;78.66
59951;BME280;45812;53.540;9.774;2023-03-01T04:31:12;103042.44;;;0.63;79.00
59951;BME280;45812;53.540;9.774;2023-03-01T04:33:43;103035.81;;;0.50;78.51
59951;BME280;45812;53.540;9.774;2023-03-01T04:36:10;103048.22;;;0.43;79.25
59951;BME280;45812;53.540;9.774;2023-03-01T04:38:37;103043.00;;;0.43;80.05
59951;BME280;45812;53.540;9.774;2023-03-01T04:41:04;103042.22;;;0.40;80.18
59951;BME280;45812;53.540;9.774;2023-03-01T04:43:29;103052.81;;;0.35;81.42
59951;BME280;45812;53.540;9.774;2023-03-01T04:46:00;103055.28;;;0.41;81.11
59951;BME280;45812;53.540;9.774;2023-03-01T04:48:27;103053.38;;;0.46;80.28
59951;BME280;45812;53.540;9.774;2023-03-01T04:50:53;103051.44;;;0.53;80.22
59951;BME280;45812;53.540;9.774;2023-03-01T04:53:18;103049.63;;;0.56;80.47
59951;BME280;45812;53.540;9.774;2023-03-01T04:55:43;103054.00;;;0.56;80.29
59951;BME280;45812;53.540;9.774;2023-03-01T04:58:08;103047.63;;;0.65;79.67
59951;BME280;45812;53.540;9.774;2023-03-01T05:00:34;103043.16;;;0.68;80.58
59951;BME280;45812;53.540;9.774;2023-03-01T05:03:00;103041.38;;;0.69;80.09
59951;BME280;45812;53.540;9.774;2023-03-01T05:05:36;103046.56;;;0.70;78.29
59951;BME280;45812;53.540;9.774;2023-03-01T05:08:05;103047.34;;;0.74;78.26
59951;BME280;45812;53.540;9.774;2023-03-01T05:10:32;103052.47;;;0.78;79.58
59951;BME280;45812;53.540;9.774;2023-03-01T05:12:59;103041.00;;;0.82;79.53
59951;BME280;45812;53.540;9.774;2023-03-01T05:15:26;103033.06;;;0.84;79.09
59951;BME280;45812;53.540;9.774;2023-03-01T05:17:57;103040.09;;;0.83;80.33
59951;BME280;45812;53.540;9.774;2023-03-01T05:20:27;103038.22;;;0.87;82.51
59951;BME280;45812;53.540;9.774;2023-03-01T05:22:58;103032.94;;;0.88;81.32
59951;BME280;45812;53.540;9.774;2023-03-01T05:25:24;103039.00;;;0.90;79.78
59951;BME280;45812;53.540;9.774;2023-03-01T05:27:50;103040.69;;;0.93;80.79
59951;BME280;45812;53.540;9.774;2023-03-01T05:30:15;103035.41;;;0.95;80.33
59951;BME280;45812;53.540;9.774;2023-03-01T05:32:48;103034.34;;;1.00;80.35
59951;BME280;45812;53.540;9.774;2023-03-01T05:35:15;103042.16;;;1.02;81.40
59951;BME280;45812;53.540;9.774;2023-03-01T05:37:46;103034.19;;;1.05;81.85
59951;BME280;45812;53.540;9.774;2023-03-01T05:40:15;103042.06;;;1.05;82.49
59951;BME280;45812;53.540;9.774;2023-03-01T05:42:43;103039.59;;;1.00;83.46
59951;BME280;45812;53.540;9.774;2023-03-01T05:45:09;103033.38;;;1.03;83.20
59951;BME280;45812;53.540;9.774;2023-03-01T05:47:35;103039.38;;;1.06;82.09
59951;BME280;45812;53.540;9.774;2023-03-01T05:50:00;103029.59;;;1.11;80.94
59951;BME280;45812;53.540;9.774;2023-03-01T05:52:26;103028.72;;;1.12;79.77
59951;BME280;45812;53.540;9.774;2023-03-01T05:54:51;103021.72;;;1.13;79.31
59951;BME280;45812;53.540;9.774;2023-03-01T05:57:16;103011.19;;;1.14;80.17
59951;BME280;45812;53.540;9.774;2023-03-01T05:59:41;103007.66;;;1.15;80.80
59951;BME280;45812;53.540;9.774;2023-03-01T06:02:07;103017.28;;;1.15;81.37
59951;BME280;45812;53.540;9.774;2023-03-01T06:04:32;103021.75;;;1.11;82.35
59951;BME280;45812;53.540;9.774;2023-03-01T06:06:57;103030.44;;;1.13;82.94
59951;BME280;45812;53.540;9.774;2023-03-01T06:09:22;103024.47;;;1.08;83.62
59951;BME280;45812;53.540;9.774;2023-03-01T06:11:48;103023.03;;;0.98;83.36
59951;BME280;45812;53.540;9.774;2023-03-01T06:14:13;103023.69;;;1.05;82.80
59951;BME280;45812;53.540;9.774;2023-03-01T06:16:39;103022.34;;;0.93;82.89
59951;BME280;45812;53.540;9.774;2023-03-01T06:19:05;103021.53;;;0.89;82.92
59951;BME280;45812;53.540;9.774;2023-03-01T06:21:30;103015.31;;;0.94;82.58
59951;BME280;45812;53.540;9.774;2023-03-01T06:23:55;103017.03;;;0.95;81.90
59951;BME280;45812;53.540;9.774;2023-03-01T06:26:21;103021.34;;;0.97;82.14
59951;BME280;45812;53.540;9.774;2023-03-01T06:28:46;103014.38;;;0.96;81.99
59951;BME280;45812;53.540;9.774;2023-03-01T06:31:11;103025.16;;;0.85;83.33
59951;BME280;45812;53.540;9.774;2023-03-01T06:33:36;103020.97;;;0.80;84.24
59951;BME280;45812;53.540;9.774;2023-03-01T06:36:02;103020.94;;;0.81;84.66
59951;BME280;45812;53.540;9.774;2023-03-01T06:38:27;103026.16;;;0.81;83.86
59951;BME280;45812;53.540;9.774;2023-03-01T06:40:54;103017.16;;;0.90;82.82
59951;BME280;45812;53.540;9.774;2023-03-01T06:43:20;103013.72;;;0.88;82.58
59951;BME280;45812;53.540;9.774;2023-03-01T06:45:45;103023.59;;;0.80;83.73
59951;BME280;45812;53.540;9.774;2023-03-01T06:48:11;103019.72;;;0.91;84.36
59951;BME280;45812;53.540;9.774;2023-03-01T06:50:36;103021.94;;;1.05;83.85
59951;BME280;45812;53.540;9.774;2023-03-01T06:53:03;103031.16;;;1.18;83.25
59951;BME280;45812;53.540;9.774;2023-03-01T06:55:30;103030.69;;;1.34;82.95
59951;BME280;45812;53.540;9.774;2023-03-01T06:57:57;103030.22;;;1.47;82.93
59951;BME280;45812;53.540;9.774;2023-03-01T07:00:23;103034.16;;;1.61;81.54
59951;BME280;45812;53.540;9.774;2023-03-01T07:02:48;103030.19;;;1.75;80.86
59951;BME280;45812;53.540;9.774;2023-03-01T07:05:13;103029.78;;;1.88;80.51
59951;BME280;45812;53.540;9.774;2023-03-01T07:07:38;103034.53;;;2.01;79.23
59951;BME280;45812;53.540;9.774;2023-03-01T07:10:04;103033.97;;;2.18;78.66
59951;BME280;45812;53.540;9.774;2023-03-01T07:12:30;103028.72;;;2.18;77.90
59951;BME280;45812;53.540;9.774;2023-03-01T07:14:55;103027.47;;;2.28;77.49
59951;BME280;45812;53.540;9.774;2023-03-01T07:17:20;103031.34;;;2.18;77.38
59951;BME280;45812;53.540;9.774;2023-03-01T07:19:45;103014.81;;;2.15;78.91
59951;BME280;45812;53.540;9.774;2023-03-01T07:22:11;103023.25;;;2.24;78.86
59951;BME280;45812;53.540;9.774;2023-03-01T07:24:36;103025.47;;;2.35;79.42
59951;BME280;45812;53.540;9.774;2023-03-01T07:27:01;103024.19;;;2.47;79.41
59951;BME280;45812;53.540;9.774;2023-03-01T07:29:26;103016.00;;;2.54;79.53
59951;BME280;45812;53.540;9.774;2023-03-01T07:31:53;103016.31;;;2.70;79.85
59951;BME280;45812;53.540;9.774;2023-03-01T07:34:19;103015.16;;;2.77;78.16
59951;BME280;45812;53.540;9.774;2023-03-01T07:36:44;103011.81;;;2.95;76.91
59951;BME280;45812;53.540;9.774;2023-03-01T07:39:11;103004.13;;;3.13;77.57
59951;BME280;45812;53.540;9.774;2023-03-01T07:41:36;103011.59;;;3.23;75.52
59951;BME280;45812;53.540;9.774;2023-03-01T07:44:01;103012.59;;;3.21;74.96
59951;BME280;45812;53.540;9.774;2023-03-01T07:46:26;103010.94;;;3.18;74.00
59951;BME280;45812;53.540;9.774;2023-03-01T07:48:52;103013.19;;;3.06;75.51
59951;BME280;45812;53.540;9.774;2023-03-01T07:51:17;103007.78;;;3.09;76.64
59951;BME280;45812;53.540;9.774;2023-03-01T07:53:46;103012.06;;;3.11;76.68
59951;BME280;45812;53.540;9.774;2023-03-01T07:56:13;103017.72;;;3.24;76.50
59951;BME280;45812;53.540;9.774;2023-03-01T07:58:40;103020.47;;;3.21;76.11
59951;BME280;45812;53.540;9.774;2023-03-01T08:01:08;103018.38;;;3.29;77.36
59951;BME280;45812;53.540;9.774;2023-03-01T08:03:34;103018.59;;;3.24;76.93
59951;BME280;45812;53.540;9.774;2023-03-01T08:06:04;103027.81;;;3.13;78.17
59951;BME280;45812;53.540;9.774;2023-03-01T08:08:30;103029.97;;;3.25;78.40
59951;BME280;45812;53.540;9.774;2023-03-01T08:10:56;103029.22;;;3.21;78.64
59951;BME280;45812;53.540;9.774;2023-03-01T08:13:22;103031.22;;;3.15;78.93
59951;BME280;45812;53.540;9.774;2023-03-01T08:15:51;103030.09;;;3.22;78.09
59951;BME280;45812;53.540;9.774;2023-03-01T08:18:17;103024.44;;;3.31;77.46
59951;BME280;45812;53.540;9.774;2023-03-01T08:20:43;103029.81;;;3.50;76.51
59951;BME280;45812;53.540;9.774;2023-03-01T08:23:08;103034.19;;;3.93;74.88
59951;BME280;45812;53.540;9.774;2023-03-01T08:25:33;103022.59;;;4.17;73.04
59951;BME280;45812;53.540;9.774;2023-03-01T08:27:59;103021.78;;;4.36;72.35
59951;BME280;45812;53.540;9.774;2023-03-01T08:30:24;103029.53;;;4.39;72.68
59951;BME280;45812;53.540;9.774;2023-03-01T08:32:50;103023.75;;;4.51;72.17
59951;BME280;45812;53.540;9.774;2023-03-01T08:35:16;103025.88;;;4.62;71.12
59951;BME280;45812;53.540;9.774;2023-03-01T08:37:41;103035.81;;;4.75;71.40
59951;BME280;45812;53.540;9.774;2023-03-01T08:40:07;103028.97;;;4.90;70.69
59951;BME280;45812;53.540;9.774;2023-03-01T08:42:33;103016.53;;;5.11;69.79
59951;BME280;45812;53.540;9.774;2023-03-01T08:44:58;103016.75;;;5.25;69.41
59951;BME280;45812;53.540;9.774;2023-03-01T08:47:23;103011.34;;;5.45;69.54
59951;BME280;45812;53.540;9.774;2023-03-01T08:49:49;103010.50;;;5.62;68.87
59951;BME280;45812;53.540;9.774;2023-03-01T08:52:15;103011.81;;;5.71;69.99
59951;BME280;45812;53.540;9.774;2023-03-01T08:54:40;103012.84;;;5.68;70.52
59951;BME280;45812;53.540;9.774;2023-03-01T08:57:05;103021.16;;;5.78;71.99
59951;BME280;45812;53.540;9.774;2023-03-01T08:59:31;103013.25;;;5.78;73.59
59951;BME280;45812;53.540;9.774;2023-03-01T09:02:00;103016.81;;;5.94;72.95
59951;BME280;45812;53.540;9.774;2023-03-01T09:04:25;103023.25;;;6.41;72.58
59951;BME280;45812;53.540;9.774;2023-03-01T09:06:51;103015.47;;;6.71;70.25
59951;BME280;45812;53.540;9.774;2023-03-01T09:09:17;103021.09;;;6.80;69.51
59951;BME280;45812;53.540;9.774;2023-03-01T09:11:43;103016.16;;;6.90;68.55
59951;BME280;45812;53.540;9.774;2023-03-01T09:14:11;103017.16;;;7.19;68.37
59951;BME280;45812;53.540;9.774;2023-03-01T09:16:37;103019.34;;;7.42;67.82
59951;BME280;45812;53.540;9.774;2023-03-01T09:19:02;103021.97;;;8.89;63.58
59951;BME280;45812;53.540;9.774;2023-03-01T09:21:28;103016.91;;;9.40;60.28
59951;BME280;45812;53.540;9.774;2023-03-01T09:23:55;103029.41;;;9.52;58.17
59951;BME280;45812;53.540;9.774;2023-03-01T09:26:22;103026.84;;;10.03;56.41
59951;BME280;45812;53.540;9.774;2023-03-01T09:28:50;103020.81;;;10.39;54.87
59951;BME280;45812;53.540;9.774;2023-03-01T09:31:17;103018.22;;;11.12;51.31
59951;BME280;45812;53.540;9.774;2023-03-01T09:33:46;103016.84;;;10.83;52.08
59951;BME280;45812;53.540;9.774;2023-03-01T09:36:15;103016.22;;;10.67;52.62
59951;BME280;45812;53.540;9.774;2023-03-01T09:38:40;103011.34;;;10.48;52.54
59951;BME280;45812;53.540;9.774;2023-03-01T09:41:11;103008.56;;;10.49;53.57
59951;BME280;45812;53.540;9.774;2023-03-01T09:43:51;103011.25;;;10.99;52.32
59951;BME280;45812;53.540;9.774;2023-03-01T09:46:22;103008.59;;;11.22;51.78
59951;BME280;45812;53.540;9.774;2023-03-01T09:48:52;103004.41;;;11.55;50.15
59951;BME280;45812;53.540;9.774;2023-03-01T09:51:32;103008.03;;;12.69;46.86
59951;BME280;45812;53.540;9.774;2023-03-01T09:53:58;103000.34;;;12.76;45.13
59951;BME280;45812;53.540;9.774;2023-03-01T09:56:47;103006.91;;;12.60;46.98
59951;BME280;45812;53.540;9.774;2023-03-01T09:59:25;103002.22;;;13.61;44.11
59951;BME280;45812;53.540;9.774;2023-03-01T10:04:32;103003.75;;;12.89;46.40
59951;BME280;45812;53.540;9.774;2023-03-01T10:09:36;103002.16;;;15.44;40.20
59951;BME280;45812;53.540;9.774;2023-03-01T10:12:07;103002.88;;;15.66;39.31
59951;BME280;45812;53.540;9.774;2023-03-01T10:17:39;103006.56;;;17.76;34.73
59951;BME280;45812;53.540;9.774;2023-03-01T10:20:30;102998.00;;;17.81;34.62
59951;BME280;45812;53.540;9.774;2023-03-01T10:22:58;102997.16;;;17.45;34.76
59951;BME280;45812;53.540;9.774;2023-03-01T10:28:26;103003.88;;;16.68;35.51
59951;BME280;45812;53.540;9.774;2023-03-01T10:30:53;103009.19;;;17.05;34.65
59951;BME280;45812;53.540;9.774;2023-03-01T10:33:23;103006.84;;;16.65;34.99
59951;BME280;45812;53.540;9.774;2023-03-01T10:35:50;103006.44;;;16.70;35.14
59951;BME280;45812;53.540;9.774;2023-03-01T10:38:16;103001.22;;;17.13;34.80
59951;BME280;45812;53.540;9.774;2023-03-01T10:40:54;102996.72;;;18.45;32.82
59951;BME280;45812;53.540;9.774;2023-03-01T10:43:20;103001.34;;;20.33;30.18
59951;BME280;45812;53.540;9.774;2023-03-01T10:45:45;102998.66;;;20.41;29.58
59951;BME280;45812;53.540;9.774;2023-03-01T10:48:18;102992.03;;;21.14;29.08
59951;BME280;45812;53.540;9.774;2023-03-01T10:50:48;102998.81;;;21.64;27.55
59951;BME280;45812;53.540;9.774;2023-03-01T10:53:43;103004.06;;;20.25;29.57
59951;BME280;45812;53.540;9.774;2023-03-01T10:56:14;102997.13;;;19.09;31.35
59951;BME280;45812;53.540;9.774;2023-03-01T10:58:57;102992.81;;;18.73;31.91
59951;BME280;45812;53.540;9.774;2023-03-01T11:06:32;102985.50;;;19.00;32.16
59951;BME280;45812;53.540;9.774;2023-03-01T11:09:17;102992.28;;;18.36;33.15
59951;BME280;45812;53.540;9.774;2023-03-01T11:11:42;102983.28;;;17.93;34.13
59951;BME280;45812;53.540;9.774;2023-03-01T11:14:22;102986.00;;;17.22;35.32
59951;BME280;45812;53.540;9.774;2023-03-01T11:17:01;102977.91;;;17.04;35.61
59951;BME280;45812;53.540;9.774;2023-03-01T11:19:27;102988.59;;;16.96;35.66
59951;BME280;45812;53.540;9.774;2023-03-01T11:22:07;102981.41;;;16.87;35.64
59951;BME280;45812;53.540;9.774;2023-03-01T11:24:39;102978.25;;;17.72;34.24
59951;BME280;45812;53.540;9.774;2023-03-01T11:27:16;102983.13;;;19.05;32.65
59951;BME280;45812;53.540;9.774;2023-03-01T11:29:45;102970.53;;;19.71;31.03
59951;BME280;45812;53.540;9.774;2023-03-01T11:32:13;102974.63;;;20.38;30.27
59951;BME280;45812;53.540;9.774;2023-03-01T11:34:51;102973.91;;;20.92;29.47
59951;BME280;45812;53.540;9.774;2023-03-01T11:37:40;102961.59;;;22.54;26.89
59951;BME280;45812;53.540;9.774;2023-03-01T11:40:21;102962.78;;;23.24;25.95
59951;BME280;45812;53.540;9.774;2023-03-01T11:48:53;102970.53;;;24.67;23.99
59951;BME280;45812;53.540;9.774;2023-03-01T11:52:01;102968.78;;;24.53;24.42
59951;BME280;45812;53.540;9.774;2023-03-01T11:57:48;102961.47;;;26.07;22.87
59951;BME280;45812;53.540;9.774;2023-03-01T12:08:41;102946.34;;;27.38;21.04
59951;BME280;45812;53.540;9.774;2023-03-01T12:11:39;102931.34;;;27.72;20.50
59951;BME280;45812;53.540;9.774;2023-03-01T12:16:59;102944.34;;;26.89;21.25
59951;BME280;45812;53.540;9.774;2023-03-01T12:19:56;102930.66;;;27.77;20.34
59951;BME280;45812;53.540;9.774;2023-03-01T12:22:43;102927.06;;;27.52;20.72
59951;BME280;45812;53.540;9.774;2023-03-01T12:25:39;102923.09;;;27.23;20.95
59951;BME280;45812;53.540;9.774;2023-03-01T12:31:11;102915.41;;;27.38;20.60
59951;BME280;45812;53.540;9.774;2023-03-01T12:36:56;102903.88;;;28.16;19.84
59951;BME280;45812;53.540;9.774;2023-03-01T12:39:36;102908.06;;;28.37;19.85
59951;BME280;45812;53.540;9.774;2023-03-01T12:42:32;102899.75;;;28.06;20.08
59951;BME280;45812;53.540;9.774;2023-03-01T12:45:26;102898.03;;;28.12;20.03
59951;BME280;45812;53.540;9.774;2023-03-01T12:48:20;102886.75;;;28.39;20.40
59951;BME280;45812;53.540;9.774;2023-03-01T12:50:50;102894.84;;;28.33;20.08
59951;BME280;45812;53.540;9.774;2023-03-01T12:53:23;102884.19;;;28.85;19.35
59951;BME280;45812;53.540;9.774;2023-03-01T12:55:50;102893.69;;;28.71;20.11
59951;BME280;45812;53.540;9.774;2023-03-01T13:03:43;102876.81;;;29.63;18.82
59951;BME280;45812;53.540;9.774;2023-03-01T13:06:25;102873.13;;;29.45;19.25
59951;BME280;45812;53.540;9.774;2023-03-01T13:09:14;102864.81;;;28.99;19.32
59951;BME280;45812;53.540;9.774;2023-03-01T13:11:42;102869.34;;;28.33;20.13
59951;BME280;45812;53.540;9.774;2023-03-01T13:16:47;102869.75;;;28.78;20.02
59951;BME280;45812;53.540;9.774;2023-03-01T13:19:22;102868.13;;;28.47;19.98
59951;BME280;45812;53.540;9.774;2023-03-01T13:21:49;102868.19;;;28.71;20.33
59951;BME280;45812;53.540;9.774;2023-03-01T13:27:09;102861.06;;;29.46;18.95
59951;BME280;45812;53.540;9.774;2023-03-01T13:32:39;102847.28;;;29.00;19.19
59951;BME280;45812;53.540;9.774;2023-03-01T13:37:39;102845.47;;;28.52;19.86
59951;BME280;45812;53.540;9.774;2023-03-01T13:42:51;102840.28;;;28.32;20.59
59951;BME280;45812;53.540;9.774;2023-03-01T13:45:38;102837.97;;;29.01;19.58
59951;BME280;45812;53.540;9.774;2023-03-01T13:48:16;102841.22;;;29.44;19.17
59951;BME280;45812;53.540;9.774;2023-03-01T13:50:49;102832.47;;;29.82;19.19
59951;BME280;45812;53.540;9.774;2023-03-01T13:53:21;102837.66;;;29.32;19.12
59951;BME280;45812;53.540;9.774;2023-03-01T13:55:51;102835.25;;;28.89;19.69
59951;BME280;45812;53.540;9.774;2023-03-01T13:58:33;102836.50;;;28.45;20.47
59951;BME280;45812;53.540;9.774;2023-03-01T14:01:04;102836.81;;;27.88;20.68
59951;BME280;45812;53.540;9.774;2023-03-01T14:03:32;102842.78;;;27.60;21.48
59951;BME280;45812;53.540;9.774;2023-03-01T14:06:01;102831.59;;;27.43;21.13
59951;BME280;45812;53.540;9.774;2023-03-01T14:08:28;102814.66;;;26.60;21.90
59951;BME280;45812;53.540;9.774;2023-03-01T14:11:06;102823.38;;;26.44;22.67